Language: 


Des rapports , des résumés tant et plus, au choix de chacun....


Données statistiques de la station
Quotidien Rapport Décembre 7, 2017 Unités:  les deux    Anglais   Métrique
« Précédent Jour
Suivant Jour »
Quotidien Hebdomadaire Mensuel Annuel Actuel
  Haut: Bas: Moyen:
Température: 46.9 °F /  8.3 °C 37.6 °F /  3.1 °C 41.7 °F /  5.4 °C
Pt de rosée: 48.2 °F /  9.0 °C 37.4 °F /  3.0 °C 40.5 °F /  4.7 °C
Humidité: 98 % 81 % 94 %
Vitesse du vent: 17.9 mph /  28.8 km/h - 8.8 mph /  14.2 km/h
Rafales: 23.9 mph /  38.5 km/h - -
Vent:- - SW
Pression: 30.2 in /  1022.9 hPa 0 in /  0.0 hPa -
Précipitation: 0.18 in /  4.6 mm    
Historical Graphs
 
 
Données statistiques pour Décembre 7, 2017
Heure Température Point de rosée Pression Vent Vitesse du vent Refales Humidité Pluie (taux horaire)
00:00 43.9 °F /  6.6 °C 39.2 °F /  4.0 °C 30.2 in /  1022.9 hPa South 8.1 mph /  13.0 km/h 10.7 mph /  17.2 km/h 83 % 0 in /  0.0 mm
00:05 43.9 °F /  6.6 °C 39.2 °F /  4.0 °C 30.2 in /  1022.9 hPa South 6.3 mph /  10.1 km/h 10.3 mph /  16.6 km/h 83 % 0 in /  0.0 mm
00:10 43.9 °F /  6.6 °C 39.2 °F /  4.0 °C 30.2 in /  1022.9 hPa South 9.8 mph /  15.8 km/h 10.1 mph /  16.3 km/h 83 % 0 in /  0.0 mm
00:15 43.7 °F /  6.5 °C 39.2 °F /  4.0 °C 30.2 in /  1022.9 hPa SSW 6 mph /  9.7 km/h 12.5 mph /  20.1 km/h 82 % 0 in /  0.0 mm
00:20 43.7 °F /  6.5 °C 39.2 °F /  4.0 °C 30.2 in /  1022.9 hPa SSW 5.8 mph /  9.3 km/h 12.5 mph /  20.1 km/h 82 % 0 in /  0.0 mm
00:25 43.7 °F /  6.5 °C 39.2 °F /  4.0 °C 30.2 in /  1022.9 hPa SSW 7.6 mph /  12.2 km/h 11.9 mph /  19.1 km/h 82 % 0 in /  0.0 mm
00:30 43.7 °F /  6.5 °C 39.2 °F /  4.0 °C 30.2 in /  1022.9 hPa SSW 8.5 mph /  13.7 km/h 8.5 mph /  13.7 km/h 81 % 0 in /  0.0 mm
00:35 43.5 °F /  6.4 °C 37.4 °F /  3.0 °C 30.2 in /  1022.9 hPa SSW 13 mph /  20.9 km/h 13 mph /  20.9 km/h 81 % 0 in /  0.0 mm
00:40 43.5 °F /  6.4 °C 37.4 °F /  3.0 °C 30.2 in /  1022.9 hPa SW 11.2 mph /  18.0 km/h 13 mph /  20.9 km/h 81 % 0 in /  0.0 mm
00:45 43.3 °F /  6.3 °C 37.4 °F /  3.0 °C 30.2 in /  1022.9 hPa SSW 9.8 mph /  15.8 km/h 13 mph /  20.9 km/h 81 % 0 in /  0.0 mm
00:50 43 °F /  6.1 °C 37.4 °F /  3.0 °C 30.2 in /  1022.9 hPa SSW 7.4 mph /  11.9 km/h 11.2 mph /  18.0 km/h 81 % 0 in /  0.0 mm
00:55 42.8 °F /  6.0 °C 37.4 °F /  3.0 °C 30.2 in /  1022.9 hPa SSW 10.1 mph /  16.3 km/h 10.1 mph /  16.3 km/h 81 % 0 in /  0.0 mm
01:00 42.8 °F /  6.0 °C 37.4 °F /  3.0 °C 30.2 in /  1022.9 hPa SSW 7.8 mph /  12.6 km/h 10.5 mph /  16.9 km/h 81 % 0 in /  0.0 mm
01:05 42.8 °F /  6.0 °C 37.4 °F /  3.0 °C 30.2 in /  1022.9 hPa WSW 6.9 mph /  11.1 km/h 11.2 mph /  18.0 km/h 81 % 0 in /  0.0 mm
01:11 42.6 °F /  5.9 °C 37.4 °F /  3.0 °C 30.2 in /  1021.9 hPa SSW 7.4 mph /  11.9 km/h 11.2 mph /  18.0 km/h 82 % 0 in /  0.0 mm
01:16 42.6 °F /  5.9 °C 37.4 °F /  3.0 °C 30.2 in /  1021.9 hPa South 6.5 mph /  10.5 km/h 9.8 mph /  15.8 km/h 82 % 0 in /  0.0 mm
01:21 42.6 °F /  5.9 °C 37.4 °F /  3.0 °C 30.2 in /  1021.9 hPa SSW 6.3 mph /  10.1 km/h 12.5 mph /  20.1 km/h 82 % 0 in /  0.0 mm
01:26 42.4 °F /  5.8 °C 37.4 °F /  3.0 °C 30.2 in /  1021.9 hPa SW 9.2 mph /  14.8 km/h 12.5 mph /  20.1 km/h 83 % 0 in /  0.0 mm
01:31 42.4 °F /  5.8 °C 37.4 °F /  3.0 °C 30.2 in /  1021.9 hPa SSW 13 mph /  20.9 km/h 13.2 mph /  21.2 km/h 83 % 0 in /  0.0 mm
01:36 42.4 °F /  5.8 °C 37.4 °F /  3.0 °C 30.2 in /  1021.9 hPa SSW 8.5 mph /  13.7 km/h 13.2 mph /  21.2 km/h 83 % 0 in /  0.0 mm
01:41 42.3 °F /  5.7 °C 37.4 °F /  3.0 °C 30.2 in /  1020.9 hPa SSW 14.8 mph /  23.8 km/h 14.8 mph /  23.8 km/h 84 % 0 in /  0.0 mm
01:46 42.3 °F /  5.7 °C 37.4 °F /  3.0 °C 30.2 in /  1020.9 hPa SSW 10.7 mph /  17.2 km/h 14.8 mph /  23.8 km/h 84 % 0 in /  0.0 mm
01:51 42.3 °F /  5.7 °C 37.4 °F /  3.0 °C 30.2 in /  1020.9 hPa SSW 8.7 mph /  14.0 km/h 14.8 mph /  23.8 km/h 84 % 0 in /  0.0 mm
01:56 42.3 °F /  5.7 °C 37.4 °F /  3.0 °C 30.2 in /  1020.9 hPa SSW 7.8 mph /  12.6 km/h 12.5 mph /  20.1 km/h 84 % 0 in /  0.0 mm
02:01 42.3 °F /  5.7 °C 37.4 °F /  3.0 °C 30.2 in /  1020.9 hPa SSW 10.1 mph /  16.3 km/h 12.5 mph /  20.1 km/h 83 % 0 in /  0.0 mm
02:06 42.3 °F /  5.7 °C 37.4 °F /  3.0 °C 30.2 in /  1020.9 hPa SSW 7.6 mph /  12.2 km/h 12.3 mph /  19.8 km/h 83 % 0 in /  0.0 mm
02:11 42.3 °F /  5.7 °C 37.4 °F /  3.0 °C 30.2 in /  1020.9 hPa SSW 12.5 mph /  20.1 km/h 12.5 mph /  20.1 km/h 83 % 0 in /  0.0 mm
02:16 42.3 °F /  5.7 °C 37.4 °F /  3.0 °C 30.2 in /  1020.9 hPa SSW 12.3 mph /  19.8 km/h 12.5 mph /  20.1 km/h 83 % 0 in /  0.0 mm
02:21 42.1 °F /  5.6 °C 37.4 °F /  3.0 °C 30.2 in /  1020.9 hPa South 8.5 mph /  13.7 km/h 12.5 mph /  20.1 km/h 84 % 0 in /  0.0 mm
02:26 41.9 °F /  5.5 °C 39.2 °F /  4.0 °C 30.2 in /  1020.9 hPa SSW 7.8 mph /  12.6 km/h 12.3 mph /  19.8 km/h 85 % 0 in /  0.0 mm
02:31 41.5 °F /  5.3 °C 37.4 °F /  3.0 °C 30.2 in /  1020.9 hPa South 10.5 mph /  16.9 km/h 13.4 mph /  21.6 km/h 86 % 0 in /  0.0 mm
02:36 41.2 °F /  5.1 °C 37.4 °F /  3.0 °C 30.2 in /  1020.9 hPa South 13 mph /  20.9 km/h 13.4 mph /  21.6 km/h 87 % 0 in /  0.0 mm
02:41 40.8 °F /  4.9 °C 37.4 °F /  3.0 °C 30.2 in /  1020.9 hPa SSW 7.4 mph /  11.9 km/h 13.2 mph /  21.2 km/h 88 % 0 in /  0.0 mm
02:47 40.6 °F /  4.8 °C 37.4 °F /  3.0 °C 30.2 in /  1020.9 hPa SSW 10.3 mph /  16.6 km/h 13.2 mph /  21.2 km/h 88 % 0 in /  0.0 mm
02:52 40.5 °F /  4.7 °C 37.4 °F /  3.0 °C 30.2 in /  1020.9 hPa South 6 mph /  9.7 km/h 10.3 mph /  16.6 km/h 88 % 0 in /  0.0 mm
02:57 40.3 °F /  4.6 °C 37.4 °F /  3.0 °C 30.2 in /  1020.9 hPa SSW 10.7 mph /  17.2 km/h 10.7 mph /  17.2 km/h 89 % 0 in /  0.0 mm
03:02 40.1 °F /  4.5 °C 37.4 °F /  3.0 °C 0 in /  0.0 hPa SSW 12.3 mph /  19.8 km/h 12.3 mph /  19.8 km/h 89 % 0 in /  0.0 mm
03:07 39.9 °F /  4.4 °C 37.4 °F /  3.0 °C 30.2 in /  1020.9 hPa South 8.7 mph /  14.0 km/h 12.3 mph /  19.8 km/h 90 % 0 in /  0.0 mm
03:12 39.9 °F /  4.4 °C 37.4 °F /  3.0 °C 30.2 in /  1020.9 hPa SSW 10.5 mph /  16.9 km/h 15.4 mph /  24.8 km/h 90 % 0 in /  0.0 mm
03:17 39.7 °F /  4.3 °C 37.4 °F /  3.0 °C 30.2 in /  1020.9 hPa SSW 12.3 mph /  19.8 km/h 15.4 mph /  24.8 km/h 91 % 0 in /  0.0 mm
03:22 39.4 °F /  4.1 °C 37.4 °F /  3.0 °C 30.2 in /  1020.9 hPa South 9.2 mph /  14.8 km/h 13.2 mph /  21.2 km/h 91 % 0 in /  0.0 mm
03:27 39.4 °F /  4.1 °C 37.4 °F /  3.0 °C 30.1 in /  1019.9 hPa SSW 8.9 mph /  14.3 km/h 13.2 mph /  21.2 km/h 91 % 0 in /  0.0 mm
03:32 39.2 °F /  4.0 °C 37.4 °F /  3.0 °C 30.1 in /  1019.9 hPa SSW 13.9 mph /  22.4 km/h 13.9 mph /  22.4 km/h 92 % 0 in /  0.0 mm
03:37 39 °F /  3.9 °C 37.4 °F /  3.0 °C 30.1 in /  1019.9 hPa SSW 11.9 mph /  19.1 km/h 13.9 mph /  22.4 km/h 93 % 0 in /  0.0 mm
03:42 39 °F /  3.9 °C 37.4 °F /  3.0 °C 30.1 in /  1018.8 hPa SSW 10.3 mph /  16.6 km/h 13.9 mph /  22.4 km/h 93 % 0 in /  0.0 mm
03:47 38.8 °F /  3.8 °C 37.4 °F /  3.0 °C 30.1 in /  1018.8 hPa SSW 7.8 mph /  12.6 km/h 11.9 mph /  19.1 km/h 93 % 0 in /  0.0 mm
03:52 38.8 °F /  3.8 °C 37.4 °F /  3.0 °C 30.1 in /  1018.8 hPa South 7.8 mph /  12.6 km/h 12.8 mph /  20.6 km/h 94 % 0 in /  0.0 mm
03:57 38.7 °F /  3.7 °C 37.4 °F /  3.0 °C 30.1 in /  1018.8 hPa South 4.3 mph /  6.9 km/h 12.8 mph /  20.6 km/h 94 % 0 in /  0.0 mm
04:02 38.7 °F /  3.7 °C 37.4 °F /  3.0 °C 30.1 in /  1018.8 hPa SSW 15.4 mph /  24.8 km/h 15.4 mph /  24.8 km/h 94 % 0 in /  0.0 mm
04:07 38.7 °F /  3.7 °C 37.4 °F /  3.0 °C 30.1 in /  1018.8 hPa SSW 15.4 mph /  24.8 km/h 15.4 mph /  24.8 km/h 94 % 0 in /  0.0 mm
04:13 38.5 °F /  3.6 °C 37.4 °F /  3.0 °C 30.1 in /  1018.8 hPa SSW 15.4 mph /  24.8 km/h 15.4 mph /  24.8 km/h 94 % 0 in /  0.0 mm
04:18 38.5 °F /  3.6 °C 37.4 °F /  3.0 °C 30.1 in /  1018.8 hPa South 8.1 mph /  13.0 km/h 15.4 mph /  24.8 km/h 94 % 0 in /  0.0 mm
04:23 38.3 °F /  3.5 °C 37.4 °F /  3.0 °C 30.1 in /  1018.8 hPa South 8.1 mph /  13.0 km/h 15.4 mph /  24.8 km/h 95 % 0 in /  0.0 mm
04:24 38.3 °F /  3.5 °C 37.4 °F /  3.0 °C 30.1 in /  1018.8 hPa South 8.1 mph /  13.0 km/h 15.4 mph /  24.8 km/h 95 % 0 in /  0.0 mm
04:25 38.3 °F /  3.5 °C 37.4 °F /  3.0 °C 30.1 in /  1018.8 hPa South 8.1 mph /  13.0 km/h 8.1 mph /  13.0 km/h 95 % 0 in /  0.0 mm
04:31 38.3 °F /  3.5 °C 37.4 °F /  3.0 °C 30.1 in /  1018.8 hPa SSW 8.1 mph /  13.0 km/h 15.4 mph /  24.8 km/h 95 % 0 in /  0.0 mm
04:36 38.1 °F /  3.4 °C 37.4 °F /  3.0 °C 30.1 in /  1018.8 hPa SSW 11.9 mph /  19.1 km/h 15.4 mph /  24.8 km/h 95 % 0 in /  0.0 mm
04:41 38.1 °F /  3.4 °C 37.4 °F /  3.0 °C 30.1 in /  1018.8 hPa SSW 8.1 mph /  13.0 km/h 14.8 mph /  23.8 km/h 95 % 0 in /  0.0 mm
04:46 37.9 °F /  3.3 °C 37.4 °F /  3.0 °C 30.1 in /  1018.8 hPa South 10.5 mph /  16.9 km/h 14.8 mph /  23.8 km/h 95 % 0 in /  0.0 mm
04:51 37.9 °F /  3.3 °C 37.4 °F /  3.0 °C 30.1 in /  1018.8 hPa South 7.4 mph /  11.9 km/h 12.5 mph /  20.1 km/h 95 % 0 in /  0.0 mm
04:56 37.8 °F /  3.2 °C 37.4 °F /  3.0 °C 30.1 in /  1018.2 hPa South 10.1 mph /  16.3 km/h 11.9 mph /  19.1 km/h 95 % 0 in /  0.0 mm
05:01 37.6 °F /  3.1 °C 37.4 °F /  3.0 °C 30.1 in /  1018.2 hPa SSE 8.1 mph /  13.0 km/h 15.2 mph /  24.5 km/h 95 % 0 in /  0.0 mm
05:06 37.6 °F /  3.1 °C 37.4 °F /  3.0 °C 30.1 in /  1018.2 hPa South 7.6 mph /  12.2 km/h 15.2 mph /  24.5 km/h 95 % 0 in /  0.0 mm
05:11 37.6 °F /  3.1 °C 37.4 °F /  3.0 °C 30.1 in /  1018.2 hPa SSW 8.7 mph /  14.0 km/h 12.1 mph /  19.5 km/h 95 % 0 in /  0.0 mm
05:16 37.6 °F /  3.1 °C 37.4 °F /  3.0 °C 30.1 in /  1018.2 hPa SSW 7.8 mph /  12.6 km/h 11 mph /  17.7 km/h 96 % 0 in /  0.0 mm
05:21 37.6 °F /  3.1 °C 37.4 °F /  3.0 °C 30.1 in /  1018.2 hPa South 7.6 mph /  12.2 km/h 13.9 mph /  22.4 km/h 96 % 0 in /  0.0 mm
05:26 37.6 °F /  3.1 °C 37.4 °F /  3.0 °C 30.1 in /  1018.2 hPa SSW 6.3 mph /  10.1 km/h 13.9 mph /  22.4 km/h 96 % 0 in /  0.0 mm
05:31 37.8 °F /  3.2 °C 37.4 °F /  3.0 °C 30.1 in /  1018.2 hPa SSW 8.7 mph /  14.0 km/h 10.7 mph /  17.2 km/h 96 % 0 in /  0.0 mm
05:36 37.9 °F /  3.3 °C 37.4 °F /  3.0 °C 30.1 in /  1018.2 hPa WSW 11 mph /  17.7 km/h 16.8 mph /  27.0 km/h 97 % 0 in /  0.0 mm
05:41 38.1 °F /  3.4 °C 37.4 °F /  3.0 °C 30.1 in /  1018.2 hPa South 10.5 mph /  16.9 km/h 16.8 mph /  27.0 km/h 97 % 0 in /  0.0 mm
05:46 38.1 °F /  3.4 °C 37.4 °F /  3.0 °C 30.1 in /  1018.2 hPa South 10.5 mph /  16.9 km/h 12.3 mph /  19.8 km/h 97 % 0 in /  0.0 mm
05:51 38.5 °F /  3.6 °C 37.4 °F /  3.0 °C 30.1 in /  1018.2 hPa SSW 6 mph /  9.7 km/h 11 mph /  17.7 km/h 97 % 0 in /  0.0 mm
05:56 38.5 °F /  3.6 °C 37.4 °F /  3.0 °C 30 in /  1016.8 hPa SSW 10.5 mph /  16.9 km/h 15.4 mph /  24.8 km/h 97 % 0 in /  0.0 mm
06:01 38.7 °F /  3.7 °C 37.4 °F /  3.0 °C 30 in /  1016.8 hPa SSW 11 mph /  17.7 km/h 16.6 mph /  26.7 km/h 96 % 0 in /  0.0 mm
06:06 38.7 °F /  3.7 °C 37.4 °F /  3.0 °C 30 in /  1016.8 hPa SSW 13.2 mph /  21.2 km/h 16.6 mph /  26.7 km/h 96 % 0 in /  0.0 mm
06:11 38.8 °F /  3.8 °C 37.4 °F /  3.0 °C 30 in /  1016.8 hPa South 8.7 mph /  14.0 km/h 13.2 mph /  21.2 km/h 96 % 0 in /  0.0 mm
06:16 38.8 °F /  3.8 °C 37.4 °F /  3.0 °C 30 in /  1016.8 hPa South 8.7 mph /  14.0 km/h 13.2 mph /  21.2 km/h 96 % 0 in /  0.0 mm
06:21 39 °F /  3.9 °C 39.2 °F /  4.0 °C 30 in /  1016.8 hPa SSW 7.6 mph /  12.2 km/h 8.7 mph /  14.0 km/h 96 % 0 in /  0.0 mm
06:26 39.2 °F /  4.0 °C 37.4 °F /  3.0 °C 30 in /  1016.8 hPa SSW 8.1 mph /  13.0 km/h 8.7 mph /  14.0 km/h 95 % 0 in /  0.0 mm
06:32 39.2 °F /  4.0 °C 37.4 °F /  3.0 °C 30 in /  1016.8 hPa SSW 7.4 mph /  11.9 km/h 14.8 mph /  23.8 km/h 95 % 0 in /  0.0 mm
06:37 39.4 °F /  4.1 °C 37.4 °F /  3.0 °C 30 in /  1016.8 hPa SSW 8.9 mph /  14.3 km/h 14.8 mph /  23.8 km/h 94 % 0 in /  0.0 mm
06:42 39.4 °F /  4.1 °C 37.4 °F /  3.0 °C 30 in /  1016.8 hPa SW 12.5 mph /  20.1 km/h 12.5 mph /  20.1 km/h 94 % 0 in /  0.0 mm
06:47 39.6 °F /  4.2 °C 37.4 °F /  3.0 °C 30 in /  1016.8 hPa SSE 5.8 mph /  9.3 km/h 12.5 mph /  20.1 km/h 93 % 0 in /  0.0 mm
06:52 39.7 °F /  4.3 °C 37.4 °F /  3.0 °C 30 in /  1016.8 hPa South 8.5 mph /  13.7 km/h 15.7 mph /  25.3 km/h 93 % 0 in /  0.0 mm
06:57 39.7 °F /  4.3 °C 37.4 °F /  3.0 °C 30 in /  1016.8 hPa South 6 mph /  9.7 km/h 15.7 mph /  25.3 km/h 93 % 0 in /  0.0 mm
07:02 39.7 °F /  4.3 °C 37.4 °F /  3.0 °C 30 in /  1016.8 hPa SSW 8.1 mph /  13.0 km/h 12.3 mph /  19.8 km/h 92 % 0 in /  0.0 mm
07:07 39.7 °F /  4.3 °C 37.4 °F /  3.0 °C 30 in /  1016.8 hPa SSW 11.9 mph /  19.1 km/h 11.9 mph /  19.1 km/h 92 % 0 in /  0.0 mm
07:12 39.7 °F /  4.3 °C 37.4 °F /  3.0 °C 30 in /  1016.1 hPa SSW 11.9 mph /  19.1 km/h 11.9 mph /  19.1 km/h 92 % 0 in /  0.0 mm
07:17 39.7 °F /  4.3 °C 37.4 °F /  3.0 °C 30 in /  1016.1 hPa SSW 11.9 mph /  19.1 km/h 11.9 mph /  19.1 km/h 92 % 0 in /  0.0 mm
07:22 39.9 °F /  4.4 °C 37.4 °F /  3.0 °C 30 in /  1016.1 hPa SSW 11.2 mph /  18.0 km/h 11.9 mph /  19.1 km/h 92 % 0 in /  0.0 mm
07:27 39.9 °F /  4.4 °C 37.4 °F /  3.0 °C 30 in /  1016.1 hPa SSW 11.2 mph /  18.0 km/h 11.9 mph /  19.1 km/h 91 % 0 in /  0.0 mm
07:32 39.9 °F /  4.4 °C 37.4 °F /  3.0 °C 30 in /  1016.1 hPa SSW 10.3 mph /  16.6 km/h 14.5 mph /  23.3 km/h 91 % 0 in /  0.0 mm
07:37 39.9 °F /  4.4 °C 37.4 °F /  3.0 °C 30 in /  1016.1 hPa SSW 11.4 mph /  18.3 km/h 14.5 mph /  23.3 km/h 91 % 0 in /  0.0 mm
07:41 39.7 °F /  4.3 °C 37.4 °F /  3.0 °C 30 in /  1015.1 hPa SSW 11.4 mph /  18.3 km/h 11.4 mph /  18.3 km/h 91 % 0 in /  0.0 mm
07:46 39.7 °F /  4.3 °C 37.4 °F /  3.0 °C 30 in /  1015.1 hPa SSW 11.4 mph /  18.3 km/h 11.4 mph /  18.3 km/h 91 % 0 in /  0.0 mm
07:51 39.7 °F /  4.3 °C 37.4 °F /  3.0 °C 30 in /  1015.1 hPa South 12.8 mph /  20.6 km/h 12.8 mph /  20.6 km/h 91 % 0 in /  0.0 mm
07:56 39.7 °F /  4.3 °C 37.4 °F /  3.0 °C 29.9 in /  1014.1 hPa South 7.8 mph /  12.6 km/h 12.8 mph /  20.6 km/h 91 % 0 in /  0.0 mm
08:01 39.7 °F /  4.3 °C 37.4 °F /  3.0 °C 29.9 in /  1014.1 hPa SSW 6.9 mph /  11.1 km/h 12.8 mph /  20.6 km/h 91 % 0 in /  0.0 mm
08:06 39.7 °F /  4.3 °C 37.4 °F /  3.0 °C 29.9 in /  1014.1 hPa SSW 6.3 mph /  10.1 km/h 7.8 mph /  12.6 km/h 91 % 0 in /  0.0 mm
08:11 39.7 °F /  4.3 °C 37.4 °F /  3.0 °C 29.9 in /  1014.1 hPa SSW 7.8 mph /  12.6 km/h 7.8 mph /  12.6 km/h 92 % 0 in /  0.0 mm
08:16 39.7 °F /  4.3 °C 37.4 °F /  3.0 °C 29.9 in /  1014.1 hPa SSW 7.8 mph /  12.6 km/h 7.8 mph /  12.6 km/h 92 % 0 in /  0.0 mm
08:21 39.7 °F /  4.3 °C 37.4 °F /  3.0 °C 29.9 in /  1014.1 hPa SSW 10.1 mph /  16.3 km/h 10.1 mph /  16.3 km/h 93 % 0 in /  0.0 mm
08:26 39.7 °F /  4.3 °C 37.4 °F /  3.0 °C 30 in /  1015.1 hPa SSW 10.1 mph /  16.3 km/h 10.1 mph /  16.3 km/h 93 % 0 in /  0.0 mm
08:31 39.7 °F /  4.3 °C 37.4 °F /  3.0 °C 30 in /  1015.1 hPa SSW 10.1 mph /  16.3 km/h 10.1 mph /  16.3 km/h 93 % 0 in /  0.0 mm
08:36 39.7 °F /  4.3 °C 37.4 °F /  3.0 °C 30 in /  1015.1 hPa SW 10.7 mph /  17.2 km/h 13 mph /  20.9 km/h 93 % 0 in /  0.0 mm
08:42 39.7 °F /  4.3 °C 37.4 °F /  3.0 °C 29.9 in /  1014.1 hPa South 10.1 mph /  16.3 km/h 16.1 mph /  25.9 km/h 93 % 0 in /  0.0 mm
08:47 39.7 °F /  4.3 °C 37.4 °F /  3.0 °C 29.9 in /  1014.1 hPa WSW 5.6 mph /  9.0 km/h 16.1 mph /  25.9 km/h 93 % 0 in /  0.0 mm
08:52 39.7 °F /  4.3 °C 37.4 °F /  3.0 °C 29.9 in /  1014.1 hPa SSW 9.8 mph /  15.8 km/h 17.7 mph /  28.5 km/h 93 % 0 in /  0.0 mm
08:53 39.7 °F /  4.3 °C 37.4 °F /  3.0 °C 29.9 in /  1014.1 hPa SSW 14.5 mph /  23.3 km/h 17.7 mph /  28.5 km/h 93 % 0 in /  0.0 mm
08:58 39.7 °F /  4.3 °C 37.4 °F /  3.0 °C 30 in /  1015.1 hPa SW 13 mph /  20.9 km/h 17.7 mph /  28.5 km/h 93 % 0 in /  0.0 mm
09:03 39.7 °F /  4.3 °C 37.4 °F /  3.0 °C 30 in /  1015.1 hPa SSW 13.9 mph /  22.4 km/h 17.7 mph /  28.5 km/h 93 % 0 in /  0.0 mm
09:08 39.7 °F /  4.3 °C 37.4 °F /  3.0 °C 30 in /  1015.1 hPa SSW 6.5 mph /  10.5 km/h 17.7 mph /  28.5 km/h 93 % 0 in /  0.0 mm
09:13 39.7 °F /  4.3 °C 37.4 °F /  3.0 °C 30 in /  1015.1 hPa SSW 9.8 mph /  15.8 km/h 17.7 mph /  28.5 km/h 93 % 0 in /  0.0 mm
09:18 39.7 °F /  4.3 °C 37.4 °F /  3.0 °C 30 in /  1015.1 hPa SSW 13 mph /  20.9 km/h 17.7 mph /  28.5 km/h 93 % 0 in /  0.0 mm
09:24 39.7 °F /  4.3 °C 37.4 °F /  3.0 °C 30 in /  1015.1 hPa South 10.7 mph /  17.2 km/h 17.4 mph /  28.0 km/h 94 % 0 in /  0.0 mm
09:29 39.7 °F /  4.3 °C 37.4 °F /  3.0 °C 30 in /  1015.1 hPa SSW 13.9 mph /  22.4 km/h 14.5 mph /  23.3 km/h 94 % 0 in /  0.0 mm
09:34 39.7 °F /  4.3 °C 37.4 °F /  3.0 °C 30 in /  1015.1 hPa West 10.7 mph /  17.2 km/h 16.6 mph /  26.7 km/h 94 % 0 in /  0.0 mm
09:39 39.7 °F /  4.3 °C 39.2 °F /  4.0 °C 30 in /  1015.1 hPa SW 8.7 mph /  14.0 km/h 17.7 mph /  28.5 km/h 95 % 0 in /  0.0 mm
09:44 39.9 °F /  4.4 °C 39.2 °F /  4.0 °C 30 in /  1015.1 hPa South 12.8 mph /  20.6 km/h 17.7 mph /  28.5 km/h 95 % 0 in /  0.0 mm
09:49 39.9 °F /  4.4 °C 39.2 °F /  4.0 °C 30 in /  1015.1 hPa SSW 12.8 mph /  20.6 km/h 17.4 mph /  28.0 km/h 95 % 0 in /  0.0 mm
09:54 39.9 °F /  4.4 °C 37.4 °F /  3.0 °C 30 in /  1015.1 hPa SSW 10.1 mph /  16.3 km/h 17.2 mph /  27.7 km/h 94 % 0 in /  0.0 mm
09:59 39.9 °F /  4.4 °C 39.2 °F /  4.0 °C 29.9 in /  1014.1 hPa SSW 12.1 mph /  19.5 km/h 14.3 mph /  23.0 km/h 95 % 0 in /  0.0 mm
10:04 40.1 °F /  4.5 °C 39.2 °F /  4.0 °C 29.9 in /  1014.1 hPa SSW 8.1 mph /  13.0 km/h 15.2 mph /  24.5 km/h 95 % 0 in /  0.0 mm
10:09 40.3 °F /  4.6 °C 39.2 °F /  4.0 °C 29.9 in /  1014.1 hPa SSW 9.8 mph /  15.8 km/h 15.2 mph /  24.5 km/h 95 % 0 in /  0.0 mm
10:14 40.3 °F /  4.6 °C 39.2 °F /  4.0 °C 29.9 in /  1014.1 hPa SSW 8.7 mph /  14.0 km/h 15.2 mph /  24.5 km/h 95 % 0 in /  0.0 mm
10:19 40.3 °F /  4.6 °C 39.2 °F /  4.0 °C 29.9 in /  1014.1 hPa SSW 12.8 mph /  20.6 km/h 13.9 mph /  22.4 km/h 95 % 0 in /  0.0 mm
10:24 40.5 °F /  4.7 °C 39.2 °F /  4.0 °C 29.9 in /  1014.1 hPa South 14.1 mph /  22.7 km/h 17.7 mph /  28.5 km/h 95 % 0 in /  0.0 mm
10:29 40.5 °F /  4.7 °C 39.2 °F /  4.0 °C 29.9 in /  1014.1 hPa South 7.6 mph /  12.2 km/h 18.8 mph /  30.2 km/h 95 % 0 in /  0.0 mm
10:34 40.6 °F /  4.8 °C 39.2 °F /  4.0 °C 29.9 in /  1014.1 hPa SSW 10.7 mph /  17.2 km/h 18.8 mph /  30.2 km/h 95 % 0 in /  0.0 mm
10:39 40.6 °F /  4.8 °C 39.2 °F /  4.0 °C 29.9 in /  1014.1 hPa SSW 15.9 mph /  25.6 km/h 19 mph /  30.6 km/h 95 % 0 in /  0.0 mm
10:44 40.8 °F /  4.9 °C 39.2 °F /  4.0 °C 29.9 in /  1013.1 hPa SW 15.4 mph /  24.8 km/h 21.9 mph /  35.2 km/h 95 % 0 in /  0.0 mm
10:49 41 °F /  5.0 °C 41 °F /  5.0 °C 29.9 in /  1013.1 hPa SSW 12.5 mph /  20.1 km/h 21.9 mph /  35.2 km/h 95 % 0 in /  0.0 mm
10:54 41 °F /  5.0 °C 41 °F /  5.0 °C 29.9 in /  1013.1 hPa SW 13.6 mph /  21.9 km/h 17 mph /  27.4 km/h 95 % 0 in /  0.0 mm
10:59 41.2 °F /  5.1 °C 39.2 °F /  4.0 °C 29.9 in /  1014.1 hPa SW 15.4 mph /  24.8 km/h 19.5 mph /  31.4 km/h 94 % 0 in /  0.0 mm
11:04 41.2 °F /  5.1 °C 39.2 °F /  4.0 °C 29.9 in /  1014.1 hPa SW 13.2 mph /  21.2 km/h 19.5 mph /  31.4 km/h 94 % 0 in /  0.0 mm
11:09 41.4 °F /  5.2 °C 39.2 °F /  4.0 °C 29.9 in /  1014.1 hPa SSW 10.1 mph /  16.3 km/h 16.3 mph /  26.2 km/h 94 % 0 in /  0.0 mm
11:14 41.5 °F /  5.3 °C 41 °F /  5.0 °C 29.9 in /  1014.1 hPa South 9.6 mph /  15.4 km/h 16.8 mph /  27.0 km/h 94 % 0 in /  0.0 mm
11:19 41.4 °F /  5.2 °C 41 °F /  5.0 °C 29.9 in /  1014.1 hPa SSW 10.3 mph /  16.6 km/h 16.8 mph /  27.0 km/h 95 % 0 in /  0.0 mm
11:24 41.4 °F /  5.2 °C 41 °F /  5.0 °C 29.9 in /  1014.1 hPa SW 12.8 mph /  20.6 km/h 15.4 mph /  24.8 km/h 96 % 0.01 in /  0.3 mm
11:29 41.4 °F /  5.2 °C 41 °F /  5.0 °C 29.9 in /  1013.1 hPa SSW 13 mph /  20.9 km/h 17.9 mph /  28.8 km/h 96 % 0.01 in /  0.3 mm
11:35 41.2 °F /  5.1 °C 41 °F /  5.0 °C 29.9 in /  1013.1 hPa WSW 13.6 mph /  21.9 km/h 17.9 mph /  28.8 km/h 97 % 0.01 in /  0.3 mm
11:40 41.2 °F /  5.1 °C 41 °F /  5.0 °C 29.9 in /  1013.1 hPa SSW 5.6 mph /  9.0 km/h 17.4 mph /  28.0 km/h 98 % 0.02 in /  0.5 mm
11:45 41.4 °F /  5.2 °C 41 °F /  5.0 °C 29.9 in /  1013.1 hPa South 8.1 mph /  13.0 km/h 17.4 mph /  28.0 km/h 98 % 0.03 in /  0.8 mm
11:50 41.4 °F /  5.2 °C 41 °F /  5.0 °C 29.9 in /  1013.1 hPa South 11 mph /  17.7 km/h 15.7 mph /  25.3 km/h 98 % 0.03 in /  0.8 mm
11:55 41.4 °F /  5.2 °C 41 °F /  5.0 °C 29.9 in /  1013.1 hPa SSW 12.5 mph /  20.1 km/h 15.7 mph /  25.3 km/h 98 % 0.03 in /  0.8 mm
12:00 41.5 °F /  5.3 °C 42.8 °F /  6.0 °C 29.9 in /  1012.1 hPa SSW 9.6 mph /  15.4 km/h 15.4 mph /  24.8 km/h 98 % 0.03 in /  0.8 mm
12:05 41.5 °F /  5.3 °C 42.8 °F /  6.0 °C 29.9 in /  1012.1 hPa SSW 10.5 mph /  16.9 km/h 15.4 mph /  24.8 km/h 98 % 0.03 in /  0.8 mm
12:10 41.5 °F /  5.3 °C 42.8 °F /  6.0 °C 29.9 in /  1012.1 hPa SSW 10.5 mph /  16.9 km/h 23.9 mph /  38.5 km/h 98 % 0.03 in /  0.8 mm
12:15 41.7 °F /  5.4 °C 42.8 °F /  6.0 °C 29.9 in /  1011.1 hPa SW 11 mph /  17.7 km/h 23.9 mph /  38.5 km/h 98 % 0.03 in /  0.8 mm
12:20 41.7 °F /  5.4 °C 42.8 °F /  6.0 °C 29.9 in /  1011.1 hPa SSW 17.9 mph /  28.8 km/h 17.9 mph /  28.8 km/h 98 % 0.02 in /  0.5 mm
12:25 41.7 °F /  5.4 °C 42.8 °F /  6.0 °C 29.9 in /  1011.1 hPa SW 8.5 mph /  13.7 km/h 17.9 mph /  28.8 km/h 98 % 0.02 in /  0.5 mm
12:30 41.9 °F /  5.5 °C 42.8 °F /  6.0 °C 29.9 in /  1011.1 hPa South 9.6 mph /  15.4 km/h 17.9 mph /  28.8 km/h 98 % 0.02 in /  0.5 mm
12:35 41.9 °F /  5.5 °C 42.8 °F /  6.0 °C 29.9 in /  1011.1 hPa SSW 8.5 mph /  13.7 km/h 15.9 mph /  25.6 km/h 98 % 0.02 in /  0.5 mm
12:40 42.1 °F /  5.6 °C 42.8 °F /  6.0 °C 29.9 in /  1011.1 hPa South 8.5 mph /  13.7 km/h 15.9 mph /  25.6 km/h 98 % 0.01 in /  0.3 mm
12:45 42.1 °F /  5.6 °C 42.8 °F /  6.0 °C 29.9 in /  1011.1 hPa SSW 15.4 mph /  24.8 km/h 17.4 mph /  28.0 km/h 98 % 0 in /  0.0 mm
12:50 42.3 °F /  5.7 °C 42.8 °F /  6.0 °C 29.9 in /  1011.1 hPa South 13.6 mph /  21.9 km/h 17.4 mph /  28.0 km/h 98 % 0 in /  0.0 mm
12:55 42.3 °F /  5.7 °C 42.8 °F /  6.0 °C 29.9 in /  1011.1 hPa SSW 17.2 mph /  27.7 km/h 17.2 mph /  27.7 km/h 98 % 0 in /  0.0 mm
13:00 42.3 °F /  5.7 °C 42.8 °F /  6.0 °C 29.9 in /  1011.1 hPa SSW 8.5 mph /  13.7 km/h 17.2 mph /  27.7 km/h 98 % 0 in /  0.0 mm
13:05 42.4 °F /  5.8 °C 42.8 °F /  6.0 °C 29.9 in /  1011.1 hPa SSW 13 mph /  20.9 km/h 16.8 mph /  27.0 km/h 98 % 0 in /  0.0 mm
13:10 42.4 °F /  5.8 °C 42.8 °F /  6.0 °C 29.9 in /  1011.1 hPa SW 9.6 mph /  15.4 km/h 16.8 mph /  27.0 km/h 98 % 0 in /  0.0 mm
13:15 42.6 °F /  5.9 °C 42.8 °F /  6.0 °C 29.8 in /  1010.0 hPa SSW 13 mph /  20.9 km/h 16.8 mph /  27.0 km/h 98 % 0 in /  0.0 mm
13:20 42.6 °F /  5.9 °C 42.8 °F /  6.0 °C 29.8 in /  1010.0 hPa SW 11.2 mph /  18.0 km/h 16.3 mph /  26.2 km/h 98 % 0 in /  0.0 mm
13:25 42.8 °F /  6.0 °C 42.8 °F /  6.0 °C 29.8 in /  1010.0 hPa SW 13 mph /  20.9 km/h 17.2 mph /  27.7 km/h 98 % 0 in /  0.0 mm
13:30 42.8 °F /  6.0 °C 42.8 °F /  6.0 °C 29.8 in /  1010.0 hPa SSW 11.9 mph /  19.1 km/h 17.2 mph /  27.7 km/h 98 % 0 in /  0.0 mm
13:35 43 °F /  6.1 °C 42.8 °F /  6.0 °C 29.8 in /  1010.0 hPa South 13.2 mph /  21.2 km/h 17.4 mph /  28.0 km/h 98 % 0 in /  0.0 mm
13:50 43.3 °F /  6.3 °C 42.8 °F /  6.0 °C 29.8 in /  1009.0 hPa SSW 10.7 mph /  17.2 km/h 19.7 mph /  31.7 km/h 98 % 0 in /  0.0 mm
14:00 43.5 °F /  6.4 °C 42.8 °F /  6.0 °C 29.8 in /  1009.0 hPa SW 17.4 mph /  28.0 km/h 17.4 mph /  28.0 km/h 98 % 0 in /  0.0 mm
14:05 43.7 °F /  6.5 °C 44.6 °F /  7.0 °C 29.8 in /  1009.0 hPa WSW 14.8 mph /  23.8 km/h 17.4 mph /  28.0 km/h 98 % 0 in /  0.0 mm
14:10 43.7 °F /  6.5 °C 44.6 °F /  7.0 °C 29.8 in /  1009.0 hPa WSW 15.4 mph /  24.8 km/h 15.9 mph /  25.6 km/h 98 % 0 in /  0.0 mm
14:15 43.7 °F /  6.5 °C 44.6 °F /  7.0 °C 29.8 in /  1009.0 hPa SSW 6.3 mph /  10.1 km/h 17.9 mph /  28.8 km/h 98 % 0 in /  0.0 mm
14:20 43.9 °F /  6.6 °C 44.6 °F /  7.0 °C 29.8 in /  1009.0 hPa SW 13 mph /  20.9 km/h 17.9 mph /  28.8 km/h 98 % 0 in /  0.0 mm
14:25 43.9 °F /  6.6 °C 44.6 °F /  7.0 °C 29.8 in /  1008.0 hPa SSW 10.7 mph /  17.2 km/h 19.5 mph /  31.4 km/h 98 % 0 in /  0.0 mm
14:30 44.1 °F /  6.7 °C 44.6 °F /  7.0 °C 29.8 in /  1008.0 hPa SW 13 mph /  20.9 km/h 19.5 mph /  31.4 km/h 98 % 0 in /  0.0 mm
14:35 44.1 °F /  6.7 °C 44.6 °F /  7.0 °C 29.8 in /  1008.0 hPa SW 6.5 mph /  10.5 km/h 15.4 mph /  24.8 km/h 98 % 0 in /  0.0 mm
14:40 44.1 °F /  6.7 °C 44.6 °F /  7.0 °C 29.8 in /  1009.0 hPa SSW 11 mph /  17.7 km/h 15.2 mph /  24.5 km/h 98 % 0 in /  0.0 mm
14:45 44.2 °F /  6.8 °C 44.6 °F /  7.0 °C 29.8 in /  1009.0 hPa SSW 12.3 mph /  19.8 km/h 15.2 mph /  24.5 km/h 98 % 0 in /  0.0 mm
14:51 44.2 °F /  6.8 °C 44.6 °F /  7.0 °C 29.8 in /  1009.0 hPa SW 7.6 mph /  12.2 km/h 14.8 mph /  23.8 km/h 98 % 0 in /  0.0 mm
14:56 44.4 °F /  6.9 °C 44.6 °F /  7.0 °C 29.8 in /  1008.0 hPa SSW 11 mph /  17.7 km/h 14.8 mph /  23.8 km/h 98 % 0 in /  0.0 mm
15:01 44.6 °F /  7.0 °C 44.6 °F /  7.0 °C 29.8 in /  1008.0 hPa SW 6 mph /  9.7 km/h 15.4 mph /  24.8 km/h 98 % 0 in /  0.0 mm
15:06 44.8 °F /  7.1 °C 44.6 °F /  7.0 °C 29.8 in /  1008.0 hPa SSE 7.8 mph /  12.6 km/h 15.4 mph /  24.8 km/h 98 % 0 in /  0.0 mm
15:16 45 °F /  7.2 °C 44.6 °F /  7.0 °C 29.8 in /  1008.0 hPa SSW 8.1 mph /  13.0 km/h 15.2 mph /  24.5 km/h 98 % 0 in /  0.0 mm
15:21 45.1 °F /  7.3 °C 44.6 °F /  7.0 °C 29.8 in /  1008.0 hPa SSW 8.7 mph /  14.0 km/h 14.3 mph /  23.0 km/h 98 % 0 in /  0.0 mm
15:26 45.1 °F /  7.3 °C 44.6 °F /  7.0 °C 29.7 in /  1007.0 hPa SSW 13 mph /  20.9 km/h 22.8 mph /  36.7 km/h 98 % 0 in /  0.0 mm
15:31 45.1 °F /  7.3 °C 44.6 °F /  7.0 °C 29.7 in /  1007.0 hPa SSW 12.5 mph /  20.1 km/h 22.8 mph /  36.7 km/h 98 % 0 in /  0.0 mm
15:36 45.1 °F /  7.3 °C 44.6 °F /  7.0 °C 29.7 in /  1007.0 hPa SSW 8.5 mph /  13.7 km/h 18.1 mph /  29.1 km/h 98 % 0 in /  0.0 mm
15:46 45.3 °F /  7.4 °C 44.6 °F /  7.0 °C 29.7 in /  1007.0 hPa SSW 12.5 mph /  20.1 km/h 17.2 mph /  27.7 km/h 98 % 0 in /  0.0 mm
15:51 45.3 °F /  7.4 °C 44.6 °F /  7.0 °C 29.7 in /  1007.0 hPa SW 12.3 mph /  19.8 km/h 19.2 mph /  30.9 km/h 98 % 0.01 in /  0.3 mm
16:21 45.7 °F /  7.6 °C 46.4 °F /  8.0 °C 29.7 in /  1007.0 hPa SW 8.5 mph /  13.7 km/h 19 mph /  30.6 km/h 98 % 0.03 in /  0.8 mm
16:26 45.9 °F /  7.7 °C 46.4 °F /  8.0 °C 29.7 in /  1007.0 hPa WSW 7.8 mph /  12.6 km/h 17 mph /  27.4 km/h 98 % 0.03 in /  0.8 mm
16:41 46 °F /  7.8 °C 46.4 °F /  8.0 °C 29.7 in /  1007.0 hPa SSW 13 mph /  20.9 km/h 17.4 mph /  28.0 km/h 98 % 0.05 in /  1.3 mm
16:51 46.2 °F /  7.9 °C 46.4 °F /  8.0 °C 29.7 in /  1007.0 hPa South 9.2 mph /  14.8 km/h 13.4 mph /  21.6 km/h 98 % 0.05 in /  1.3 mm
16:56 46.2 °F /  7.9 °C 46.4 °F /  8.0 °C 29.7 in /  1007.0 hPa SW 10.3 mph /  16.6 km/h 12.3 mph /  19.8 km/h 98 % 0.06 in /  1.5 mm
17:01 46.2 °F /  7.9 °C 46.4 °F /  8.0 °C 29.7 in /  1007.0 hPa SSW 10.3 mph /  16.6 km/h 19 mph /  30.6 km/h 98 % 0.06 in /  1.5 mm
17:06 46.2 °F /  7.9 °C 46.4 °F /  8.0 °C 29.7 in /  1007.0 hPa SW 7.8 mph /  12.6 km/h 19.7 mph /  31.7 km/h 98 % 0.06 in /  1.5 mm
17:11 46.2 °F /  7.9 °C 46.4 °F /  8.0 °C 29.7 in /  1007.0 hPa SSW 9.6 mph /  15.4 km/h 19.7 mph /  31.7 km/h 98 % 0.05 in /  1.3 mm
17:16 46 °F /  7.8 °C 46.4 °F /  8.0 °C 29.7 in /  1007.0 hPa SW 6.5 mph /  10.5 km/h 13.4 mph /  21.6 km/h 98 % 0.05 in /  1.3 mm
17:21 46.2 °F /  7.9 °C 46.4 °F /  8.0 °C 29.7 in /  1007.0 hPa WSW 7.6 mph /  12.2 km/h 15.4 mph /  24.8 km/h 98 % 0.05 in /  1.3 mm
17:31 46.2 °F /  7.9 °C 46.4 °F /  8.0 °C 29.7 in /  1007.0 hPa SSW 13.6 mph /  21.9 km/h 14.5 mph /  23.3 km/h 98 % 0.05 in /  1.3 mm
17:41 46.2 °F /  7.9 °C 46.4 °F /  8.0 °C 29.7 in /  1006.0 hPa WSW 6.9 mph /  11.1 km/h 12.1 mph /  19.5 km/h 98 % 0.04 in /  1.0 mm
17:46 46.2 °F /  7.9 °C 46.4 °F /  8.0 °C 29.7 in /  1006.0 hPa SW 12.3 mph /  19.8 km/h 12.3 mph /  19.8 km/h 98 % 0.05 in /  1.3 mm
17:51 46.4 °F /  8.0 °C 46.4 °F /  8.0 °C 29.7 in /  1006.0 hPa WSW 8.7 mph /  14.0 km/h 13 mph /  20.9 km/h 98 % 0.04 in /  1.0 mm
17:56 46.4 °F /  8.0 °C 46.4 °F /  8.0 °C 29.7 in /  1007.0 hPa SW 7.2 mph /  11.6 km/h 13 mph /  20.9 km/h 98 % 0.03 in /  0.8 mm
18:02 46.6 °F /  8.1 °C 46.4 °F /  8.0 °C 29.7 in /  1007.0 hPa WSW 6 mph /  9.7 km/h 12.8 mph /  20.6 km/h 98 % 0.03 in /  0.8 mm
18:07 46.6 °F /  8.1 °C 46.4 °F /  8.0 °C 29.7 in /  1007.0 hPa WSW 10.1 mph /  16.3 km/h 12.8 mph /  20.6 km/h 98 % 0.01 in /  0.3 mm
18:12 46.8 °F /  8.2 °C 46.4 °F /  8.0 °C 29.7 in /  1007.0 hPa WSW 7.8 mph /  12.6 km/h 13 mph /  20.9 km/h 98 % 0.01 in /  0.3 mm
18:17 46.8 °F /  8.2 °C 46.4 °F /  8.0 °C 29.7 in /  1007.0 hPa WSW 9.8 mph /  15.8 km/h 13 mph /  20.9 km/h 98 % 0.01 in /  0.3 mm
18:22 46.9 °F /  8.3 °C 48.2 °F /  9.0 °C 29.7 in /  1007.0 hPa WSW 5.4 mph /  8.7 km/h 13 mph /  20.9 km/h 98 % 0.01 in /  0.3 mm
18:27 46.9 °F /  8.3 °C 48.2 °F /  9.0 °C 29.7 in /  1007.0 hPa NNW 3.1 mph /  5.0 km/h 11.9 mph /  19.1 km/h 98 % 0.01 in /  0.3 mm
18:32 46.9 °F /  8.3 °C 48.2 °F /  9.0 °C 29.7 in /  1007.0 hPa West 6 mph /  9.7 km/h 7.8 mph /  12.6 km/h 98 % 0.02 in /  0.5 mm
18:37 46.9 °F /  8.3 °C 48.2 °F /  9.0 °C 29.7 in /  1007.0 hPa NNW 5.8 mph /  9.3 km/h 10.1 mph /  16.3 km/h 98 % 0.03 in /  0.8 mm
18:42 46 °F /  7.8 °C 46.4 °F /  8.0 °C 29.8 in /  1009.0 hPa NNW 8.7 mph /  14.0 km/h 12.5 mph /  20.1 km/h 98 % 0.05 in /  1.3 mm
18:47 45.5 °F /  7.5 °C 46.4 °F /  8.0 °C 29.8 in /  1009.0 hPa NW 4.3 mph /  6.9 km/h 12.5 mph /  20.1 km/h 98 % 0.03 in /  0.8 mm
18:52 45 °F /  7.2 °C 44.6 °F /  7.0 °C 29.8 in /  1009.0 hPa North 7.6 mph /  12.2 km/h 12.5 mph /  20.1 km/h 98 % 0.03 in /  0.8 mm
18:57 44.8 °F /  7.1 °C 44.6 °F /  7.0 °C 29.8 in /  1009.0 hPa North 5.6 mph /  9.0 km/h 10.7 mph /  17.2 km/h 98 % 0.03 in /  0.8 mm
19:28 44.2 °F /  6.8 °C 44.6 °F /  7.0 °C 29.8 in /  1009.0 hPa Calm   5.6 mph /  9.0 km/h 98 % 0.03 in /  0.8 mm
19:38 44.1 °F /  6.7 °C 44.6 °F /  7.0 °C 29.8 in /  1009.0 hPa WNW 0.9 mph /  1.4 km/h 4 mph /  6.4 km/h 98 % 0.01 in /  0.3 mm
19:48 44.1 °F /  6.7 °C 44.6 °F /  7.0 °C 29.8 in /  1009.0 hPa Calm   4 mph /  6.4 km/h 98 % 0.01 in /  0.3 mm
19:58 43.9 °F /  6.6 °C 44.6 °F /  7.0 °C 29.8 in /  1009.0 hPa NNW 1.6 mph /  2.6 km/h 7.6 mph /  12.2 km/h 98 % 0.01 in /  0.3 mm
20:03 43.7 °F /  6.5 °C 44.6 °F /  7.0 °C 29.8 in /  1009.0 hPa Calm   6.3 mph /  10.1 km/h 98 % 0.01 in /  0.3 mm
20:08 43.5 °F /  6.4 °C 42.8 °F /  6.0 °C 29.8 in /  1009.0 hPa West 1.3 mph /  2.1 km/h 6.3 mph /  10.1 km/h 98 % 0 in /  0.0 mm
20:13 43.3 °F /  6.3 °C 42.8 °F /  6.0 °C 29.8 in /  1009.0 hPa Calm   5.8 mph /  9.3 km/h 98 % 0 in /  0.0 mm
20:18 43.3 °F /  6.3 °C 42.8 °F /  6.0 °C 29.8 in /  1009.0 hPa West 5.4 mph /  8.7 km/h 6.3 mph /  10.1 km/h 98 % 0 in /  0.0 mm
20:23 43 °F /  6.1 °C 42.8 °F /  6.0 °C 29.8 in /  1009.0 hPa Calm   6.3 mph /  10.1 km/h 98 % 0 in /  0.0 mm
20:28 43 °F /  6.1 °C 42.8 °F /  6.0 °C 29.8 in /  1009.0 hPa Calm   5.8 mph /  9.3 km/h 98 % 0 in /  0.0 mm
20:38 42.4 °F /  5.8 °C 42.8 °F /  6.0 °C 29.8 in /  1009.0 hPa Calm   4.3 mph /  6.9 km/h 98 % 0 in /  0.0 mm
20:43 42.3 °F /  5.7 °C 42.8 °F /  6.0 °C 29.8 in /  1009.0 hPa WSW 3.8 mph /  6.1 km/h 4.9 mph /  7.9 km/h 98 % 0 in /  0.0 mm
20:48 41.9 °F /  5.5 °C 42.8 °F /  6.0 °C 29.8 in /  1009.0 hPa SW 3.4 mph /  5.5 km/h 5.4 mph /  8.7 km/h 98 % 0 in /  0.0 mm
20:58 41.5 °F /  5.3 °C 42.8 °F /  6.0 °C 29.8 in /  1009.0 hPa Calm   5.4 mph /  8.7 km/h 98 % 0 in /  0.0 mm
21:03 41.5 °F /  5.3 °C 42.8 °F /  6.0 °C 29.8 in /  1009.0 hPa WSW 3.1 mph /  5.0 km/h 5.4 mph /  8.7 km/h 98 % 0 in /  0.0 mm
21:18 41.7 °F /  5.4 °C 42.8 °F /  6.0 °C 29.8 in /  1010.0 hPa WNW 3.8 mph /  6.1 km/h 6.9 mph /  11.1 km/h 98 % 0 in /  0.0 mm
21:28 41.9 °F /  5.5 °C 42.8 °F /  6.0 °C 29.8 in /  1010.0 hPa West 3.1 mph /  5.0 km/h 7.2 mph /  11.6 km/h 98 % 0 in /  0.0 mm
21:33 41.9 °F /  5.5 °C 42.8 °F /  6.0 °C 29.8 in /  1010.0 hPa Calm   8.1 mph /  13.0 km/h 98 % 0 in /  0.0 mm
21:38 42.1 °F /  5.6 °C 42.8 °F /  6.0 °C 29.8 in /  1010.0 hPa West 6 mph /  9.7 km/h 8.1 mph /  13.0 km/h 98 % 0 in /  0.0 mm
21:43 42.1 °F /  5.6 °C 42.8 °F /  6.0 °C 29.8 in /  1010.0 hPa West 4.9 mph /  7.9 km/h 7.6 mph /  12.2 km/h 98 % 0 in /  0.0 mm
21:48 42.1 °F /  5.6 °C 42.8 °F /  6.0 °C 29.8 in /  1010.0 hPa SW 2.9 mph /  4.7 km/h 6.5 mph /  10.5 km/h 98 % 0 in /  0.0 mm
21:53 42.1 °F /  5.6 °C 42.8 °F /  6.0 °C 29.8 in /  1010.0 hPa West 3.8 mph /  6.1 km/h 7.4 mph /  11.9 km/h 98 % 0 in /  0.0 mm
21:58 42.1 °F /  5.6 °C 42.8 °F /  6.0 °C 29.8 in /  1010.0 hPa West 0.9 mph /  1.4 km/h 8.5 mph /  13.7 km/h 98 % 0 in /  0.0 mm
22:08 42.1 °F /  5.6 °C 42.8 °F /  6.0 °C 29.8 in /  1010.0 hPa West 2.9 mph /  4.7 km/h 7.4 mph /  11.9 km/h 98 % 0 in /  0.0 mm
22:14 42.1 °F /  5.6 °C 42.8 °F /  6.0 °C 29.8 in /  1010.0 hPa WSW 3.1 mph /  5.0 km/h 7.4 mph /  11.9 km/h 98 % 0 in /  0.0 mm
22:22 41.7 °F /  5.4 °C 42.8 °F /  6.0 °C 29.8 in /  1010.0 hPa WSW 4.7 mph /  7.6 km/h 7.2 mph /  11.6 km/h 98 % 0 in /  0.0 mm
22:27 41.5 °F /  5.3 °C 42.8 °F /  6.0 °C 29.8 in /  1010.0 hPa WSW 5.6 mph /  9.0 km/h 6.9 mph /  11.1 km/h 98 % 0 in /  0.0 mm
22:32 41.2 °F /  5.1 °C 41 °F /  5.0 °C 29.8 in /  1010.0 hPa West 7.2 mph /  11.6 km/h 7.2 mph /  11.6 km/h 98 % 0 in /  0.0 mm
22:37 41 °F /  5.0 °C 41 °F /  5.0 °C 29.8 in /  1010.0 hPa West 2.5 mph /  4.0 km/h 7.2 mph /  11.6 km/h 98 % 0 in /  0.0 mm
22:42 40.8 °F /  4.9 °C 41 °F /  5.0 °C 29.8 in /  1010.0 hPa West 4 mph /  6.4 km/h 7.2 mph /  11.6 km/h 98 % 0 in /  0.0 mm
22:47 40.5 °F /  4.7 °C 41 °F /  5.0 °C 29.8 in /  1010.0 hPa West 3.4 mph /  5.5 km/h 5.6 mph /  9.0 km/h 98 % 0 in /  0.0 mm
22:52 40.5 °F /  4.7 °C 41 °F /  5.0 °C 29.8 in /  1010.0 hPa West 3.1 mph /  5.0 km/h 4.9 mph /  7.9 km/h 98 % 0 in /  0.0 mm
22:57 40.3 °F /  4.6 °C 41 °F /  5.0 °C 29.8 in /  1010.0 hPa WSW 5.6 mph /  9.0 km/h 6.9 mph /  11.1 km/h 98 % 0 in /  0.0 mm
23:02 40.1 °F /  4.5 °C 41 °F /  5.0 °C 29.8 in /  1010.0 hPa West 3.8 mph /  6.1 km/h 6.9 mph /  11.1 km/h 98 % 0 in /  0.0 mm
23:12 39.9 °F /  4.4 °C 39.2 °F /  4.0 °C 29.8 in /  1010.0 hPa WSW 3.6 mph /  5.8 km/h 8.5 mph /  13.7 km/h 98 % 0 in /  0.0 mm
23:17 39.9 °F /  4.4 °C 39.2 °F /  4.0 °C 29.8 in /  1010.0 hPa West 5.4 mph /  8.7 km/h 7.6 mph /  12.2 km/h 98 % 0 in /  0.0 mm
23:22 39.9 °F /  4.4 °C 39.2 °F /  4.0 °C 29.8 in /  1010.0 hPa West 4 mph /  6.4 km/h 8.5 mph /  13.7 km/h 98 % 0 in /  0.0 mm
23:32 40.1 °F /  4.5 °C 41 °F /  5.0 °C 29.9 in /  1011.1 hPa West 2.7 mph /  4.3 km/h 8.7 mph /  14.0 km/h 98 % 0 in /  0.0 mm
23:37 40.3 °F /  4.6 °C 41 °F /  5.0 °C 29.9 in /  1011.1 hPa SSW 5.8 mph /  9.3 km/h 6.3 mph /  10.1 km/h 98 % 0 in /  0.0 mm
23:42 40.1 °F /  4.5 °C 41 °F /  5.0 °C 29.9 in /  1011.1 hPa West 4.3 mph /  6.9 km/h 5.8 mph /  9.3 km/h 98 % 0 in /  0.0 mm
23:52 40.1 °F /  4.5 °C 41 °F /  5.0 °C 29.9 in /  1011.1 hPa WNW 6.5 mph /  10.5 km/h 6.5 mph /  10.5 km/h 98 % 0 in /  0.0 mm
23:57 39.9 °F /  4.4 °C 39.2 °F /  4.0 °C 29.9 in /  1011.1 hPa Calm   6.5 mph /  10.5 km/h 98 % 0 in /  0.0 mm
Le Gheer Warneton
Courtoisie de Weather Underground - 2 mb

Mise a jour : 18/12/2017 17:18:12
Généré par Cumulus 1.9.4 (1099)